createdAt,value
2022-09-07T00:02:13.674Z,17.50
2022-09-07T00:06:15.675Z,17.40
2022-09-07T00:10:17.455Z,17.30
2022-09-07T00:14:19.194Z,17.30
2022-09-07T00:18:21.219Z,17.20
2022-09-07T00:22:22.998Z,17.20
2022-09-07T00:26:30.330Z,17.20
2022-09-07T00:30:32.530Z,17.20
2022-09-07T00:34:34.352Z,17.30
2022-09-07T00:38:36.611Z,17.20
2022-09-07T00:42:38.337Z,17.10
2022-09-07T00:46:40.168Z,17.10
2022-09-07T00:50:53.495Z,17.20
2022-09-07T00:54:59.554Z,17.10
2022-09-07T00:59:01.792Z,17.10
2022-09-07T01:03:05.257Z,17.00
2022-09-07T01:07:07.835Z,17.00
2022-09-07T01:11:10.007Z,16.90
2022-09-07T01:15:12.429Z,16.90
2022-09-07T01:19:39.363Z,16.80
2022-09-07T01:24:02.261Z,16.80
2022-09-07T01:28:21.119Z,16.80
2022-09-07T01:33:04.831Z,16.80
2022-09-07T01:37:22.726Z,16.80
2022-09-07T01:41:52.044Z,16.80
2022-09-07T01:45:56.912Z,16.80
2022-09-07T01:50:21.091Z,16.80
2022-09-07T01:54:32.049Z,16.80
2022-09-07T01:59:02.876Z,16.80
2022-09-07T02:03:10.923Z,16.80
2022-09-07T02:07:15.539Z,16.70
2022-09-07T02:11:21.143Z,16.80
2022-09-07T02:15:43.229Z,16.80
2022-09-07T02:19:51.847Z,16.80
2022-09-07T02:24:22.746Z,16.80
2022-09-07T02:28:33.197Z,16.70
2022-09-07T02:32:35.149Z,16.70
2022-09-07T02:36:43.527Z,16.70
2022-09-07T02:40:52.195Z,16.70
2022-09-07T02:44:53.973Z,16.70
2022-09-07T02:49:26.772Z,16.70
2022-09-07T02:53:52.552Z,16.70
2022-09-07T02:58:00.689Z,16.70
2022-09-07T03:02:24.978Z,16.70
2022-09-07T03:06:40.704Z,16.60
2022-09-07T03:10:43.729Z,16.60
2022-09-07T03:14:45.883Z,16.60
2022-09-07T03:18:47.588Z,16.50
2022-09-07T03:22:52.107Z,16.50
2022-09-07T03:26:53.918Z,16.50
2022-09-07T03:30:56.552Z,16.50
2022-09-07T03:35:00.681Z,16.50
2022-09-07T03:39:03.947Z,16.50
2022-09-07T03:43:05.726Z,16.50
2022-09-07T03:47:07.603Z,16.40
2022-09-07T03:51:11.290Z,16.40
2022-09-07T03:55:13.402Z,16.30
2022-09-07T03:59:15.164Z,16.30
2022-09-07T04:03:16.874Z,16.30
2022-09-07T04:07:18.687Z,16.30
2022-09-07T04:11:20.548Z,16.30
2022-09-07T04:15:22.275Z,16.30
2022-09-07T04:19:24.170Z,16.30
2022-09-07T04:23:25.853Z,16.20
2022-09-07T04:27:27.575Z,16.20
2022-09-07T04:31:29.538Z,16.10
2022-09-07T04:35:31.303Z,16.10
2022-09-07T04:39:33.125Z,16.10
2022-09-07T04:43:36.183Z,16.10
2022-09-07T04:47:37.942Z,16.00
2022-09-07T04:51:42.464Z,16.00
2022-09-07T04:55:44.209Z,16.00
2022-09-07T04:59:45.928Z,16.00
2022-09-07T05:03:48.276Z,16.10
2022-09-07T05:07:49.995Z,16.10
2022-09-07T05:11:51.760Z,16.10
2022-09-07T05:15:53.504Z,16.10
2022-09-07T05:19:55.291Z,16.10
2022-09-07T05:23:58.298Z,16.10
2022-09-07T05:28:00.244Z,16.10
2022-09-07T05:32:02.398Z,16.10
2022-09-07T05:36:06.179Z,16.10
2022-09-07T05:40:09.047Z,16.00
2022-09-07T05:48:32.501Z,16.10
2022-09-07T05:52:34.352Z,16.10
2022-09-07T05:56:36.628Z,16.10
2022-09-07T06:00:38.483Z,16.20
2022-09-07T06:04:40.411Z,16.30
2022-09-07T06:08:47.741Z,16.40
2022-09-07T06:12:49.570Z,16.40
2022-09-07T06:16:51.452Z,16.60
2022-09-07T06:20:53.234Z,16.70
2022-09-07T06:24:55.003Z,16.90
2022-09-07T06:28:58.026Z,17.00
2022-09-07T06:32:59.833Z,17.10
2022-09-07T06:37:01.716Z,17.20
2022-09-07T06:45:26.134Z,17.20
2022-09-07T06:49:27.952Z,17.30
2022-09-07T06:53:34.914Z,17.40
2022-09-07T06:57:36.731Z,17.50
2022-09-07T07:01:38.551Z,17.80
2022-09-07T07:05:40.351Z,17.90
2022-09-07T07:09:42.389Z,17.90
2022-09-07T07:13:45.171Z,17.90
2022-09-07T07:17:53.201Z,18.00
2022-09-07T07:26:21.936Z,18.10
2022-09-07T07:30:23.734Z,18.30
2022-09-07T07:34:25.602Z,18.40
2022-09-07T07:42:52.387Z,18.50
2022-09-07T07:46:54.272Z,18.50
2022-09-07T07:51:04.359Z,18.50
2022-09-07T07:59:30.666Z,18.50
2022-09-07T08:03:35.867Z,18.50
2022-09-07T08:07:37.879Z,18.40
2022-09-07T08:11:40.384Z,18.40
2022-09-07T08:15:45.128Z,18.40
2022-09-07T08:19:47.240Z,18.40
2022-09-07T08:23:48.986Z,18.40
2022-09-07T08:27:50.579Z,18.40
2022-09-07T08:31:52.314Z,18.40
2022-09-07T08:36:21.418Z,18.60
2022-09-07T08:40:23.080Z,18.70
2022-09-07T08:44:42.879Z,18.90
2022-09-07T08:48:44.983Z,18.90
2022-09-07T08:53:08.969Z,19.00
2022-09-07T08:57:26.235Z,19.10
2022-09-07T09:06:30.587Z,19.60
2022-09-07T09:10:39.820Z,19.80
2022-09-07T09:15:08.860Z,20.00
2022-09-07T09:19:40.048Z,20.20
2022-09-07T09:23:43.778Z,20.40
2022-09-07T09:27:45.871Z,21.00
2022-09-07T09:31:47.547Z,20.70
2022-09-07T09:35:51.596Z,20.90
2022-09-07T09:40:02.232Z,21.10
2022-09-07T09:44:04.847Z,21.70
2022-09-07T09:48:11.597Z,21.70
2022-09-07T09:52:40.343Z,21.60
2022-09-07T09:56:45.187Z,21.60
2022-09-07T10:05:28.589Z,23.20
2022-09-07T10:09:38.111Z,24.30
2022-09-07T10:13:46.889Z,24.40
2022-09-07T10:17:50.438Z,23.90
2022-09-07T10:21:58.104Z,23.50
2022-09-07T10:26:19.187Z,23.20
2022-09-07T10:30:20.867Z,22.90
2022-09-07T10:35:01.153Z,22.60
2022-09-07T10:39:17.185Z,22.30
2022-09-07T10:43:49.835Z,22.00
2022-09-07T10:48:11.215Z,21.70
2022-09-07T10:52:28.264Z,21.60
2022-09-07T10:56:39.347Z,21.80
2022-09-07T11:00:51.649Z,22.10
2022-09-07T11:05:10.330Z,22.40
2022-09-07T11:09:48.085Z,22.50
2022-09-07T11:14:11.954Z,22.60
2022-09-07T11:18:26.390Z,23.00
2022-09-07T11:22:27.989Z,23.50
2022-09-07T11:26:42.908Z,23.60
2022-09-07T11:30:50.643Z,23.50
2022-09-07T11:34:57.377Z,23.30
2022-09-07T11:39:11.564Z,23.20
2022-09-07T11:43:34.851Z,23.30
2022-09-07T11:47:59.056Z,22.90
2022-09-07T11:52:16.552Z,22.60
2022-09-07T11:56:21.272Z,22.50
2022-09-07T12:00:41.652Z,22.40
2022-09-07T12:04:56.624Z,22.50
2022-09-07T12:09:20.559Z,23.00
2022-09-07T12:13:37.963Z,23.60
2022-09-07T12:17:51.378Z,23.80
2022-09-07T12:21:52.938Z,23.60
2022-09-07T12:26:43.542Z,23.40
2022-09-07T12:31:06.669Z,23.30
2022-09-07T12:35:28.418Z,23.40
2022-09-07T12:39:34.322Z,23.80
2022-09-07T12:43:47.923Z,24.10
2022-09-07T12:47:58.128Z,24.00
2022-09-07T12:52:21.363Z,23.80
2022-09-07T12:56:46.669Z,23.50
2022-09-07T13:01:15.195Z,23.50
2022-09-07T13:05:54.463Z,23.70
2022-09-07T13:09:58.482Z,23.90
2022-09-07T13:14:09.559Z,24.10
2022-09-07T13:18:35.287Z,24.40
2022-09-07T13:22:36.952Z,24.60
2022-09-07T13:27:03.447Z,24.00
2022-09-07T13:31:16.516Z,23.80
2022-09-07T13:35:24.465Z,23.90
2022-09-07T13:39:26.641Z,24.20
2022-09-07T13:43:28.490Z,24.20
2022-09-07T13:47:39.129Z,24.10
2022-09-07T13:51:49.879Z,24.00
2022-09-07T13:55:57.627Z,24.00
2022-09-07T13:59:59.561Z,24.30
2022-09-07T14:04:07.545Z,24.50
2022-09-07T14:08:29.398Z,24.70
2022-09-07T14:12:31.223Z,25.20
2022-09-07T14:16:34.225Z,25.00
2022-09-07T14:20:51.288Z,24.90
2022-09-07T14:24:57.712Z,25.00
2022-09-07T14:29:01.358Z,25.10
2022-09-07T14:33:10.922Z,25.50
2022-09-07T14:37:15.505Z,25.80
2022-09-07T14:41:19.867Z,25.80
2022-09-07T14:45:24.215Z,25.60
2022-09-07T14:49:25.988Z,25.30
2022-09-07T14:53:35.274Z,25.30
2022-09-07T14:57:37.259Z,25.30
2022-09-07T15:01:39.138Z,25.20
2022-09-07T15:05:48.114Z,25.10
2022-09-07T15:09:49.704Z,24.90
2022-09-07T15:13:59.861Z,24.90
2022-09-07T15:18:08.739Z,24.70
2022-09-07T15:22:27.100Z,24.50
2022-09-07T15:35:26.703Z,24.40
2022-09-07T15:39:29.653Z,24.30
2022-09-07T15:43:31.844Z,24.40
2022-09-07T15:47:52.088Z,24.60
2022-09-07T15:52:11.218Z,24.70
2022-09-07T15:56:13.243Z,24.60
2022-09-07T16:00:15.305Z,24.50
2022-09-07T16:04:17.047Z,24.50
2022-09-07T16:08:26.119Z,24.40
2022-09-07T16:21:13.093Z,24.00
2022-09-07T16:25:14.731Z,23.90
2022-09-07T16:29:17.890Z,23.70
2022-09-07T16:33:19.690Z,23.80
2022-09-07T16:37:21.412Z,23.70
2022-09-07T16:41:29.174Z,23.70
2022-09-07T16:49:52.627Z,23.60
2022-09-07T16:53:56.022Z,23.50
2022-09-07T17:02:19.440Z,23.40
2022-09-07T17:06:30.996Z,23.30
2022-09-07T17:10:32.945Z,23.20
2022-09-07T17:14:34.563Z,23.10
2022-09-07T17:23:01.015Z,23.00
2022-09-07T17:27:03.498Z,23.10
2022-09-07T17:31:10.910Z,23.00
2022-09-07T17:35:12.699Z,22.80
2022-09-07T17:39:17.132Z,22.60
2022-09-07T17:47:43.150Z,22.20
2022-09-07T17:51:45.437Z,22.00
2022-09-07T17:55:47.094Z,21.70
2022-09-07T18:04:11.761Z,21.10
2022-09-07T18:08:13.795Z,20.80
2022-09-07T18:12:15.459Z,20.50
2022-09-07T18:16:20.111Z,20.30
2022-09-07T18:20:24.042Z,20.10
2022-09-07T18:24:25.800Z,19.90
2022-09-07T18:32:49.048Z,19.50
2022-09-07T18:36:51.143Z,19.30
2022-09-07T18:41:04.915Z,19.10
2022-09-07T18:49:28.555Z,18.90
2022-09-07T18:53:30.824Z,18.70
2022-09-07T18:57:32.737Z,18.50
2022-09-07T19:01:34.411Z,18.30
2022-09-07T19:05:52.926Z,18.20
2022-09-07T19:09:54.819Z,18.10
2022-09-07T19:14:04.013Z,17.90
2022-09-07T19:18:07.657Z,17.80
2022-09-07T19:22:09.259Z,17.80
2022-09-07T19:26:11.135Z,17.60
2022-09-07T19:30:13.465Z,17.50
2022-09-07T19:34:15.132Z,17.50
2022-09-07T19:38:17.716Z,17.40
2022-09-07T19:42:19.323Z,17.20
2022-09-07T19:46:24.822Z,17.10
2022-09-07T19:50:26.797Z,17.00
2022-09-07T19:54:28.427Z,17.00
2022-09-07T19:58:32.718Z,16.90
2022-09-07T20:02:34.404Z,16.80
2022-09-07T20:06:38.602Z,16.80
2022-09-07T20:10:40.329Z,16.70
2022-09-07T20:14:41.913Z,16.50
2022-09-07T20:18:44.251Z,16.50
2022-09-07T20:22:46.339Z,16.40
2022-09-07T20:26:48.369Z,16.30
2022-09-07T20:30:50.207Z,16.30
2022-09-07T20:34:52.976Z,16.30
2022-09-07T20:38:56.457Z,16.20
2022-09-07T20:42:58.686Z,16.10
2022-09-07T20:47:00.745Z,16.00
2022-09-07T20:51:04.167Z,16.10
2022-09-07T20:55:06.099Z,16.00
2022-09-07T20:59:07.897Z,16.00
2022-09-07T21:03:10.347Z,15.90
2022-09-07T21:07:11.953Z,15.90
2022-09-07T21:11:31.741Z,15.90
2022-09-07T21:15:41.539Z,15.80
2022-09-07T21:19:43.195Z,15.80
2022-09-07T21:23:44.837Z,15.70
2022-09-07T21:27:46.466Z,15.60
2022-09-07T21:31:48.211Z,15.60
2022-09-07T21:35:50.041Z,15.50
2022-09-07T21:39:51.703Z,15.50
2022-09-07T21:44:01.141Z,15.40
2022-09-07T21:48:02.896Z,15.40
2022-09-07T21:52:04.486Z,15.40
2022-09-07T21:56:09.261Z,15.30
2022-09-07T22:00:11.620Z,15.30
2022-09-07T22:04:13.489Z,15.20
2022-09-07T22:08:15.791Z,15.30
2022-09-07T22:12:17.496Z,15.20
2022-09-07T22:16:19.366Z,15.30
2022-09-07T22:20:21.456Z,15.30
2022-09-07T22:24:23.064Z,15.30
2022-09-07T22:28:24.999Z,15.30
2022-09-07T22:32:26.791Z,15.20
2022-09-07T22:36:30.123Z,15.20
2022-09-07T22:40:31.792Z,15.30
2022-09-07T22:44:33.396Z,15.30
2022-09-07T22:48:35.490Z,15.40
2022-09-07T22:52:37.122Z,15.40
2022-09-07T22:56:39.391Z,15.40
2022-09-07T23:00:41.004Z,15.50
2022-09-07T23:04:42.768Z,15.50
2022-09-07T23:08:44.571Z,15.50
2022-09-07T23:12:46.131Z,15.50
2022-09-07T23:16:48.230Z,15.50
2022-09-07T23:20:49.826Z,15.50
2022-09-07T23:24:51.435Z,15.50
2022-09-07T23:28:54.785Z,15.40
2022-09-07T23:32:56.483Z,15.50
2022-09-07T23:36:58.180Z,15.50
2022-09-07T23:41:00.494Z,15.50
2022-09-07T23:45:02.975Z,15.50
2022-09-07T23:49:04.662Z,15.60
2022-09-07T23:53:06.329Z,15.70
2022-09-07T23:57:07.963Z,15.80
